createdAt,value
2023-04-18T00:01:03.718Z,36.15
2023-04-18T00:03:32.118Z,36.18
2023-04-18T00:06:00.184Z,36.19
2023-04-18T00:08:28.660Z,36.21
2023-04-18T00:10:56.736Z,36.24
2023-04-18T00:13:25.329Z,36.19
2023-04-18T00:15:54.265Z,36.38
2023-04-18T00:18:22.266Z,36.28
2023-04-18T00:20:50.336Z,36.34
2023-04-18T00:23:18.931Z,36.30
2023-04-18T00:25:47.619Z,36.20
2023-04-18T00:28:15.694Z,36.19
2023-04-18T00:30:43.709Z,36.15
2023-04-18T00:33:11.843Z,36.32
2023-04-18T00:35:40.419Z,36.26
2023-04-18T00:38:08.888Z,36.20
2023-04-18T00:40:37.843Z,36.19
2023-04-18T00:43:07.632Z,36.24
2023-04-18T00:45:35.843Z,36.17
2023-04-18T00:48:04.494Z,36.23
2023-04-18T00:50:33.455Z,36.28
2023-04-18T00:53:01.526Z,36.33
2023-04-18T00:55:29.678Z,36.22
2023-04-18T00:57:57.663Z,36.16
2023-04-18T01:00:26.043Z,36.19
2023-04-18T01:02:56.005Z,36.21
2023-04-18T01:05:24.345Z,36.31
2023-04-18T01:07:52.806Z,36.14
2023-04-18T01:10:20.904Z,36.25
2023-04-18T01:12:50.992Z,36.24
2023-04-18T01:15:19.090Z,36.19
2023-04-18T01:17:47.519Z,36.20
2023-04-18T01:20:17.005Z,36.12
2023-04-18T01:22:45.154Z,36.21
2023-04-18T01:25:13.831Z,36.25
2023-04-18T01:27:41.805Z,36.21
2023-04-18T01:30:10.805Z,36.23
2023-04-18T01:32:38.955Z,36.19
2023-04-18T01:35:07.764Z,36.22
2023-04-18T01:37:36.042Z,36.27
2023-04-18T01:40:04.925Z,36.16
2023-04-18T01:42:32.885Z,36.24
2023-04-18T01:45:00.981Z,36.21
2023-04-18T01:47:29.065Z,36.17
2023-04-18T01:49:57.204Z,36.20
2023-04-18T01:52:25.389Z,36.25
2023-04-18T01:54:53.459Z,36.12
2023-04-18T01:57:21.534Z,36.27
2023-04-18T01:59:50.634Z,36.24
2023-04-18T02:02:19.685Z,36.14
2023-04-18T02:04:47.890Z,36.16
2023-04-18T02:07:15.871Z,36.21
2023-04-18T02:09:43.762Z,36.22
2023-04-18T02:12:12.938Z,36.22
2023-04-18T02:14:40.946Z,36.17
2023-04-18T02:17:09.087Z,36.18
2023-04-18T02:19:37.573Z,36.22
2023-04-18T02:22:05.731Z,36.21
2023-04-18T02:24:33.806Z,36.27
2023-04-18T02:27:02.079Z,36.22
2023-04-18T02:29:30.722Z,36.12
2023-04-18T02:31:58.818Z,36.22
2023-04-18T02:34:26.787Z,36.19
2023-04-18T02:36:54.781Z,36.23
2023-04-18T02:39:22.741Z,36.19
2023-04-18T02:41:51.346Z,36.26
2023-04-18T02:44:19.404Z,36.19
2023-04-18T02:46:47.679Z,36.19
2023-04-18T02:49:15.956Z,36.20
2023-04-18T02:51:45.721Z,36.19
2023-04-18T02:54:14.045Z,36.07
2023-04-18T02:56:55.663Z,36.06
2023-04-18T02:59:27.294Z,36.32
2023-04-18T03:01:58.053Z,36.27
2023-04-18T03:04:26.413Z,36.27
2023-04-18T03:07:02.982Z,36.27
2023-04-18T03:09:33.395Z,36.29
2023-04-18T03:12:05.874Z,36.34
2023-04-18T03:14:35.192Z,36.25
2023-04-18T03:17:04.486Z,36.21
2023-04-18T03:19:37.478Z,36.05
2023-04-18T03:22:09.426Z,36.21
2023-04-18T03:24:41.499Z,36.17
2023-04-18T03:27:09.877Z,36.22
2023-04-18T03:29:38.755Z,36.26
2023-04-18T03:32:07.005Z,36.18
2023-04-18T03:34:35.117Z,36.25
2023-04-18T03:37:04.516Z,36.11
2023-04-18T03:39:33.810Z,36.11
2023-04-18T03:42:02.594Z,36.08
2023-04-18T03:44:30.653Z,36.18
2023-04-18T03:46:58.733Z,36.28
2023-04-18T03:49:27.021Z,36.26
2023-04-18T03:51:55.199Z,36.21
2023-04-18T03:54:23.396Z,36.18
2023-04-18T03:56:51.450Z,36.25
2023-04-18T03:59:20.224Z,36.25
2023-04-18T04:01:50.248Z,36.28
2023-04-18T04:04:19.291Z,36.22
2023-04-18T04:06:47.686Z,36.14
2023-04-18T04:09:17.932Z,36.20
2023-04-18T04:11:46.308Z,36.25
2023-04-18T04:14:15.252Z,36.10
2023-04-18T04:16:46.054Z,36.12
2023-04-18T04:19:16.288Z,36.11
2023-04-18T04:21:54.406Z,36.12
2023-04-18T04:24:23.114Z,36.04
2023-04-18T04:26:51.962Z,36.07
2023-04-18T04:29:23.862Z,36.13
2023-04-18T04:31:53.102Z,37.10
2023-04-18T04:34:31.249Z,38.31
2023-04-18T04:37:01.242Z,39.36
2023-04-18T04:39:29.560Z,39.93
2023-04-18T04:42:29.844Z,40.58
2023-04-18T04:45:03.991Z,40.62
2023-04-18T04:47:32.265Z,40.50
2023-04-18T04:50:00.483Z,40.62
2023-04-18T04:52:28.490Z,40.81
2023-04-18T04:54:56.881Z,41.06
2023-04-18T04:57:25.745Z,40.91
2023-04-18T04:59:54.227Z,40.95
2023-04-18T05:02:23.717Z,41.26
2023-04-18T05:04:52.120Z,41.80
2023-04-18T05:07:20.183Z,41.99
2023-04-18T05:09:48.286Z,42.23
2023-04-18T05:12:16.187Z,42.28
2023-04-18T05:14:44.349Z,42.38
2023-04-18T05:17:12.289Z,42.43
2023-04-18T05:19:40.959Z,42.52
2023-04-18T05:22:09.032Z,42.44
2023-04-18T05:24:37.002Z,42.23
2023-04-18T05:27:05.069Z,42.10
2023-04-18T05:29:33.450Z,39.73
2023-04-18T05:32:01.942Z,40.26
2023-04-18T05:34:30.576Z,40.55
2023-04-18T05:36:58.692Z,40.61
2023-04-18T05:39:27.075Z,40.68
2023-04-18T05:41:55.237Z,40.51
2023-04-18T05:44:24.345Z,40.56
2023-04-18T05:46:52.626Z,40.45
2023-04-18T05:49:20.903Z,40.36
2023-04-18T05:51:50.086Z,40.19
2023-04-18T05:54:18.161Z,40.12
2023-04-18T05:56:46.253Z,40.04
2023-04-18T05:59:14.311Z,39.90
2023-04-18T06:01:42.384Z,39.82
2023-04-18T06:04:10.863Z,39.82
2023-04-18T06:06:40.156Z,39.41
2023-04-18T06:09:08.438Z,39.37
2023-04-18T06:11:36.614Z,39.17
2023-04-18T06:14:04.686Z,39.08
2023-04-18T06:16:32.726Z,38.88
2023-04-18T06:19:02.569Z,38.75
2023-04-18T06:21:30.847Z,38.77
2023-04-18T06:23:59.337Z,38.83
2023-04-18T06:26:27.615Z,38.68
2023-04-18T06:28:56.107Z,38.73
2023-04-18T06:31:24.432Z,38.58
2023-04-18T06:33:52.653Z,38.45
2023-04-18T06:36:21.217Z,38.57
2023-04-18T06:38:49.200Z,38.61
2023-04-18T06:41:17.197Z,38.41
2023-04-18T06:43:59.711Z,38.28
2023-04-18T06:46:32.365Z,38.23
2023-04-18T06:49:00.527Z,38.11
2023-04-18T06:51:29.335Z,37.96
2023-04-18T06:53:57.357Z,37.91
2023-04-18T06:56:25.555Z,37.88
2023-04-18T06:58:53.474Z,37.83
2023-04-18T07:01:21.722Z,37.85
2023-04-18T07:03:50.061Z,37.68
2023-04-18T07:06:19.088Z,37.71
2023-04-18T07:08:47.078Z,37.26
2023-04-18T07:11:15.945Z,35.87
2023-04-18T07:13:45.440Z,35.43
2023-04-18T07:16:13.424Z,35.51
2023-04-18T07:18:41.416Z,35.75
2023-04-18T07:21:09.680Z,35.72
2023-04-18T07:23:38.027Z,36.01
2023-04-18T07:26:06.071Z,36.05
2023-04-18T07:28:34.278Z,35.87
2023-04-18T07:31:04.103Z,35.84
2023-04-18T07:33:34.083Z,35.88
2023-04-18T07:36:03.140Z,35.78
2023-04-18T07:38:31.168Z,35.84
2023-04-18T07:40:59.769Z,35.91
2023-04-18T07:43:27.885Z,35.84
2023-04-18T07:45:56.048Z,35.83
2023-04-18T07:48:25.729Z,35.83
2023-04-18T07:50:53.956Z,35.81
2023-04-18T07:53:21.969Z,35.79
2023-04-18T07:55:50.398Z,35.82
2023-04-18T07:58:18.430Z,35.70
2023-04-18T08:00:46.665Z,34.81
2023-04-18T08:03:14.998Z,34.04
2023-04-18T08:05:43.406Z,34.26
2023-04-18T08:08:12.148Z,34.55
2023-04-18T08:10:40.308Z,34.13
2023-04-18T08:13:08.553Z,33.15
2023-04-18T08:15:36.870Z,32.33
2023-04-18T08:18:05.129Z,32.21
2023-04-18T08:20:34.539Z,32.57
2023-04-18T08:23:08.560Z,32.77
2023-04-18T08:25:38.679Z,32.89
2023-04-18T08:28:06.878Z,32.91
2023-04-18T08:30:35.022Z,32.99
2023-04-18T08:33:03.356Z,32.99
2023-04-18T08:35:31.582Z,33.00
2023-04-18T08:38:00.976Z,32.99
2023-04-18T08:40:30.613Z,33.01
2023-04-18T08:42:59.072Z,32.72
2023-04-18T08:45:45.154Z,32.88
2023-04-18T08:48:14.556Z,32.81
2023-04-18T08:50:43.038Z,32.81
2023-04-18T08:53:28.620Z,32.92
2023-04-18T08:55:57.319Z,32.98
2023-04-18T08:58:27.728Z,33.04
2023-04-18T09:00:55.793Z,33.02
2023-04-18T09:03:41.930Z,33.04
2023-04-18T09:06:14.260Z,33.05
2023-04-18T09:08:43.954Z,33.15
2023-04-18T09:11:29.365Z,33.38
2023-04-18T09:14:24.881Z,33.48
2023-04-18T09:16:53.607Z,33.42
2023-04-18T09:19:22.054Z,33.31
2023-04-18T09:22:08.459Z,33.42
2023-04-18T09:24:57.285Z,33.47
2023-04-18T09:27:25.590Z,33.40
2023-04-18T09:29:56.508Z,33.42
2023-04-18T09:32:27.388Z,33.55
2023-04-18T09:35:03.971Z,33.04
2023-04-18T09:37:32.842Z,32.41
2023-04-18T09:40:01.020Z,32.10
2023-04-18T09:42:31.307Z,32.24
2023-04-18T09:45:05.092Z,32.49
2023-04-18T09:47:35.364Z,32.58
2023-04-18T09:50:04.894Z,32.46
2023-04-18T09:52:35.581Z,32.40
2023-04-18T09:55:05.630Z,32.41
2023-04-18T09:57:34.299Z,32.46
2023-04-18T10:00:17.931Z,32.31
2023-04-18T10:02:53.658Z,32.18
2023-04-18T10:05:30.913Z,32.19
2023-04-18T10:07:59.258Z,32.02
2023-04-18T10:10:27.522Z,31.85
2023-04-18T10:12:57.121Z,31.72
2023-04-18T10:15:27.157Z,31.71
2023-04-18T10:18:04.339Z,31.59
2023-04-18T10:20:33.775Z,31.40
2023-04-18T10:23:37.784Z,31.24
2023-04-18T10:26:06.843Z,31.13
2023-04-18T10:28:57.548Z,31.04
2023-04-18T10:31:27.064Z,30.94
2023-04-18T10:36:30.369Z,30.62
2023-04-18T10:39:04.246Z,30.51
2023-04-18T10:41:33.368Z,30.51
2023-04-18T10:44:10.374Z,30.44
2023-04-18T10:46:50.758Z,30.51
2023-04-18T10:49:23.921Z,30.44
2023-04-18T10:51:55.040Z,30.34
2023-04-18T10:54:31.005Z,30.05
2023-04-18T10:57:01.829Z,29.95
2023-04-18T10:59:31.730Z,30.05
2023-04-18T11:02:19.335Z,29.95
2023-04-18T11:04:51.783Z,29.65
2023-04-18T11:07:20.548Z,29.63
2023-04-18T11:09:54.857Z,29.72
2023-04-18T11:12:23.035Z,29.64
2023-04-18T11:14:52.853Z,29.62
2023-04-18T11:17:24.374Z,29.61
2023-04-18T11:20:03.129Z,29.59
2023-04-18T11:22:31.305Z,29.52
2023-04-18T11:25:07.214Z,29.33
2023-04-18T11:27:35.225Z,30.50
2023-04-18T11:30:03.715Z,30.68
2023-04-18T11:32:31.786Z,30.33
2023-04-18T11:34:59.955Z,29.84
2023-04-18T11:37:27.920Z,28.97
2023-04-18T11:39:55.895Z,28.53
2023-04-18T11:42:28.756Z,28.41
2023-04-18T11:44:56.859Z,28.56
2023-04-18T11:50:06.717Z,28.64
2023-04-18T11:52:35.710Z,28.64
2023-04-18T11:55:21.422Z,28.70
2023-04-18T11:57:53.157Z,28.84
2023-04-18T12:00:32.514Z,29.02
2023-04-18T12:03:02.349Z,29.45
2023-04-18T12:05:32.349Z,30.15
2023-04-18T12:08:18.110Z,30.08
2023-04-18T12:10:47.632Z,30.03
2023-04-18T12:13:15.686Z,30.04
2023-04-18T12:15:45.045Z,30.00
2023-04-18T12:18:14.427Z,30.05
2023-04-18T12:20:50.281Z,30.06
2023-04-18T12:23:30.702Z,30.22
2023-04-18T12:26:11.271Z,30.22
2023-04-18T12:28:39.449Z,30.23
2023-04-18T12:31:07.587Z,30.18
2023-04-18T12:33:38.766Z,30.12
2023-04-18T12:36:08.659Z,29.48
2023-04-18T12:38:36.839Z,22.75
2023-04-18T12:41:05.537Z,22.34
2023-04-18T12:43:33.569Z,22.77
2023-04-18T12:46:01.785Z,23.36
2023-04-18T12:48:29.847Z,23.42
2023-04-18T12:50:58.029Z,23.65
2023-04-18T12:53:26.294Z,23.89
2023-04-18T12:55:54.276Z,24.18
2023-04-18T12:58:22.335Z,23.96
2023-04-18T13:00:50.419Z,24.26
2023-04-18T13:03:18.557Z,24.72
2023-04-18T13:05:46.666Z,25.07
2023-04-18T13:08:17.579Z,24.80
2023-04-18T13:10:47.718Z,24.92
2023-04-18T13:13:16.174Z,24.68
2023-04-18T13:15:44.485Z,24.07
2023-04-18T13:18:12.655Z,23.76
2023-04-18T13:20:40.827Z,23.63
2023-04-18T13:23:09.005Z,23.63
2023-04-18T13:25:37.093Z,23.69
2023-04-18T13:28:05.755Z,24.07
2023-04-18T13:30:35.930Z,23.96
2023-04-18T13:33:04.445Z,24.14
2023-04-18T13:35:32.736Z,24.38
2023-04-18T13:38:00.918Z,24.22
2023-04-18T13:40:29.088Z,24.60
2023-04-18T13:42:57.147Z,24.81
2023-04-18T13:45:25.447Z,24.45
2023-04-18T13:47:53.568Z,24.19
2023-04-18T13:50:23.287Z,24.11
2023-04-18T13:52:52.183Z,23.85
2023-04-18T13:55:20.293Z,23.78
2023-04-18T13:57:48.456Z,23.83
2023-04-18T14:00:17.660Z,23.64
2023-04-18T14:02:45.945Z,23.67
2023-04-18T14:05:14.147Z,23.91
2023-04-18T14:07:42.278Z,23.94
2023-04-18T14:10:11.037Z,24.00
2023-04-18T14:12:40.129Z,24.21
2023-04-18T14:15:09.133Z,24.76
2023-04-18T14:17:37.166Z,25.44
2023-04-18T14:20:06.420Z,26.21
2023-04-18T14:22:34.364Z,26.82
2023-04-18T14:25:02.477Z,27.22
2023-04-18T14:27:30.844Z,27.76
2023-04-18T14:29:58.754Z,27.90
2023-04-18T14:32:27.021Z,28.17
2023-04-18T14:34:54.983Z,28.30
2023-04-18T14:37:23.139Z,28.51
2023-04-18T14:39:51.308Z,28.70
2023-04-18T14:42:19.277Z,28.76
2023-04-18T14:44:47.413Z,28.88
2023-04-18T14:47:16.030Z,29.10
2023-04-18T14:49:43.981Z,29.45
2023-04-18T14:52:11.980Z,29.66
2023-04-18T14:54:40.152Z,29.72
2023-04-18T14:57:10.383Z,29.95
2023-04-18T14:59:38.649Z,30.20
2023-04-18T15:02:06.726Z,30.34
2023-04-18T15:04:34.884Z,30.48
2023-04-18T15:07:02.973Z,30.50
2023-04-18T15:09:35.431Z,30.73
2023-04-18T15:12:04.398Z,30.77
2023-04-18T15:14:32.968Z,30.67
2023-04-18T15:17:01.400Z,30.72
2023-04-18T15:19:30.764Z,30.84
2023-04-18T15:21:58.670Z,30.95
2023-04-18T15:24:26.799Z,30.96
2023-04-18T15:26:54.916Z,31.33
2023-04-18T15:29:23.397Z,31.30
2023-04-18T15:31:51.527Z,31.19
2023-04-18T15:34:19.670Z,31.29
2023-04-18T15:36:49.119Z,31.33
2023-04-18T15:39:20.369Z,31.42
2023-04-18T15:41:48.358Z,31.46
2023-04-18T15:44:16.446Z,31.75
2023-04-18T15:46:44.622Z,31.81
2023-04-18T15:49:12.959Z,31.51
2023-04-18T15:51:41.156Z,31.66
2023-04-18T15:54:09.344Z,31.68
2023-04-18T15:56:37.276Z,31.65
2023-04-18T15:59:06.176Z,31.60
2023-04-18T16:01:35.862Z,31.52
2023-04-18T16:04:04.285Z,31.65
2023-04-18T16:06:32.558Z,31.71
2023-04-18T16:09:00.532Z,32.01
2023-04-18T16:11:29.031Z,31.77
2023-04-18T16:13:57.176Z,31.89
2023-04-18T16:16:25.275Z,32.18
2023-04-18T16:18:53.537Z,32.38
2023-04-18T16:21:21.606Z,32.70
2023-04-18T16:23:49.863Z,32.68
2023-04-18T16:26:17.971Z,33.02
2023-04-18T16:28:46.120Z,33.39
2023-04-18T16:31:14.345Z,31.20
2023-04-18T16:33:42.643Z,28.48
2023-04-18T16:36:10.668Z,27.29
2023-04-18T16:38:38.744Z,26.62
2023-04-18T16:41:06.793Z,26.33
2023-04-18T16:43:38.207Z,26.57
2023-04-18T16:46:06.588Z,28.26
2023-04-18T16:48:38.004Z,29.66
2023-04-18T16:51:06.756Z,30.27
2023-04-18T16:53:34.753Z,30.57
2023-04-18T16:56:03.342Z,30.66
2023-04-18T16:58:31.590Z,30.87
2023-04-18T17:01:01.838Z,30.96
2023-04-18T17:03:30.434Z,31.30
2023-04-18T17:06:01.555Z,31.69
2023-04-18T17:08:31.566Z,31.74
2023-04-18T17:10:59.957Z,31.86
2023-04-18T17:13:30.786Z,31.90
2023-04-18T17:15:58.885Z,32.02
2023-04-18T17:18:27.041Z,31.98
2023-04-18T17:20:55.205Z,32.15
2023-04-18T17:23:23.369Z,32.15
2023-04-18T17:25:51.435Z,32.35
2023-04-18T17:28:19.731Z,32.52
2023-04-18T17:30:47.786Z,32.65
2023-04-18T17:33:15.788Z,32.79
2023-04-18T17:35:43.867Z,32.88
2023-04-18T17:38:12.832Z,33.00
2023-04-18T17:40:40.895Z,33.13
2023-04-18T17:43:10.716Z,33.09
2023-04-18T17:45:38.890Z,33.28
2023-04-18T17:48:06.981Z,33.41
2023-04-18T17:50:37.191Z,33.48
2023-04-18T17:53:05.460Z,33.54
2023-04-18T17:55:33.834Z,33.51
2023-04-18T17:58:02.022Z,33.61
2023-04-18T18:00:30.723Z,33.78
2023-04-18T18:03:01.697Z,33.85
2023-04-18T18:05:30.516Z,33.95
2023-04-18T18:08:00.121Z,34.00
2023-04-18T18:10:28.614Z,34.15
2023-04-18T18:12:56.824Z,34.24
2023-04-18T18:15:25.058Z,34.39
2023-04-18T18:17:53.583Z,34.60
2023-04-18T18:20:21.711Z,34.78
2023-04-18T18:22:49.991Z,34.95
2023-04-18T18:25:18.606Z,35.17
2023-04-18T18:27:47.374Z,35.31
2023-04-18T18:30:15.520Z,35.70
2023-04-18T18:32:43.660Z,35.83
2023-04-18T18:35:12.643Z,35.89
2023-04-18T18:37:41.304Z,35.90
2023-04-18T18:40:10.315Z,35.96
2023-04-18T18:42:39.673Z,36.00
2023-04-18T18:45:09.724Z,35.91
2023-04-18T18:47:39.797Z,35.88
2023-04-18T18:50:09.226Z,35.80
2023-04-18T18:52:37.280Z,35.76
2023-04-18T18:55:05.877Z,35.73
2023-04-18T18:57:34.685Z,35.58
2023-04-18T19:00:02.755Z,35.55
2023-04-18T19:02:31.227Z,35.56
2023-04-18T19:04:59.958Z,35.44
2023-04-18T19:07:30.859Z,35.45
2023-04-18T19:10:00.769Z,35.42
2023-04-18T19:12:29.384Z,35.35
2023-04-18T19:14:57.530Z,35.28
2023-04-18T19:17:27.734Z,35.27
2023-04-18T19:19:57.998Z,35.27
2023-04-18T19:22:26.148Z,35.04
2023-04-18T19:24:54.313Z,35.10
2023-04-18T19:27:22.292Z,35.07
2023-04-18T19:29:50.770Z,34.99
2023-04-18T19:32:18.853Z,34.95
2023-04-18T19:34:46.802Z,34.85
2023-04-18T19:37:14.786Z,34.84
2023-04-18T19:39:42.855Z,34.87
2023-04-18T19:42:10.930Z,34.85
2023-04-18T19:44:39.001Z,34.86
2023-04-18T19:47:07.071Z,34.74
2023-04-18T19:49:35.036Z,34.59
2023-04-18T19:52:03.007Z,34.71
2023-04-18T19:54:33.952Z,34.50
2023-04-18T19:57:02.509Z,34.57
2023-04-18T19:59:30.630Z,34.49
2023-04-18T20:02:01.410Z,34.34
2023-04-18T20:04:31.702Z,34.53
2023-04-18T20:06:59.827Z,34.84
2023-04-18T20:09:27.748Z,35.13
2023-04-18T20:11:57.006Z,35.44
2023-04-18T20:14:24.978Z,35.50
2023-04-18T20:16:53.077Z,35.78
2023-04-18T20:19:21.628Z,36.02
2023-04-18T20:21:49.536Z,36.04
2023-04-18T20:24:17.979Z,36.08
2023-04-18T20:26:45.953Z,36.13
2023-04-18T20:29:14.205Z,36.12
2023-04-18T20:31:42.808Z,36.16
2023-04-18T20:34:11.182Z,36.22
2023-04-18T20:36:42.157Z,36.11
2023-04-18T20:39:10.300Z,36.03
2023-04-18T20:41:46.373Z,35.81
2023-04-18T20:44:14.724Z,35.75
2023-04-18T20:46:42.899Z,35.72
2023-04-18T20:49:11.394Z,35.71
2023-04-18T20:51:39.709Z,35.68
2023-04-18T20:54:07.831Z,35.69
2023-04-18T20:56:38.995Z,35.83
2023-04-18T20:59:07.271Z,35.76
2023-04-18T21:01:37.030Z,35.78
2023-04-18T21:04:05.662Z,35.65
2023-04-18T21:06:33.725Z,35.68
2023-04-18T21:09:01.809Z,35.72
2023-04-18T21:11:29.776Z,35.76
2023-04-18T21:13:58.058Z,35.79
2023-04-18T21:16:26.366Z,35.84
2023-04-18T21:18:55.825Z,35.84
2023-04-18T21:21:24.419Z,35.85
2023-04-18T21:23:52.396Z,35.86
2023-04-18T21:26:21.145Z,35.76
2023-04-18T21:28:53.421Z,36.00
2023-04-18T21:31:21.575Z,35.97
2023-04-18T21:33:54.398Z,36.10
2023-04-18T21:36:23.602Z,36.20
2023-04-18T21:38:53.425Z,36.09
2023-04-18T21:41:21.584Z,36.08
2023-04-18T21:43:49.649Z,36.00
2023-04-18T21:46:18.173Z,36.02
2023-04-18T21:48:47.122Z,35.97
2023-04-18T21:51:16.135Z,35.79
2023-04-18T21:53:44.308Z,35.78
2023-04-18T21:56:12.469Z,35.70
2023-04-18T21:58:40.560Z,35.71
2023-04-18T22:01:08.571Z,35.59
2023-04-18T22:03:37.178Z,35.64
2023-04-18T22:06:05.779Z,35.68
2023-04-18T22:08:34.069Z,35.55
2023-04-18T22:11:02.167Z,35.45
2023-04-18T22:13:33.304Z,35.49
2023-04-18T22:16:03.033Z,35.51
2023-04-18T22:18:33.813Z,35.53
2023-04-18T22:21:03.578Z,35.43
2023-04-18T22:23:31.678Z,35.44
2023-04-18T22:25:59.890Z,35.35
2023-04-18T22:28:28.793Z,35.47
2023-04-18T22:30:57.153Z,35.48
2023-04-18T22:33:25.626Z,35.38
2023-04-18T22:35:54.445Z,35.40
2023-04-18T22:38:22.411Z,35.34
2023-04-18T22:40:50.328Z,35.32
2023-04-18T22:43:23.971Z,35.40
2023-04-18T22:45:52.189Z,35.35
2023-04-18T22:48:20.322Z,35.29
2023-04-18T22:50:50.083Z,35.32
2023-04-18T22:53:18.501Z,35.30
2023-04-18T22:55:46.876Z,35.23
2023-04-18T22:58:15.144Z,35.21
2023-04-18T23:00:43.540Z,35.24
2023-04-18T23:03:11.873Z,35.07
2023-04-18T23:05:40.730Z,35.21
2023-04-18T23:08:08.977Z,35.22
2023-04-18T23:10:37.048Z,35.12
2023-04-18T23:13:05.324Z,35.15
2023-04-18T23:15:33.446Z,35.09
2023-04-18T23:18:01.715Z,35.17
2023-04-18T23:20:29.868Z,35.15
2023-04-18T23:22:57.941Z,35.04
2023-04-18T23:25:25.998Z,35.03
2023-04-18T23:27:54.069Z,35.12
2023-04-18T23:30:22.418Z,35.06
2023-04-18T23:32:50.659Z,35.06
2023-04-18T23:35:18.905Z,35.13
2023-04-18T23:37:47.073Z,35.06
2023-04-18T23:40:15.141Z,34.97
2023-04-18T23:42:44.044Z,35.10
2023-04-18T23:45:12.528Z,35.07
2023-04-18T23:47:40.628Z,35.12
2023-04-18T23:50:09.682Z,35.11
2023-04-18T23:52:38.690Z,35.14
2023-04-18T23:55:07.362Z,35.09
2023-04-18T23:57:35.442Z,35.10
